sensor_id;sensor_type;location;lat;lon;timestamp;pressure;altitude;pressure_sealevel;temperature;humidity
23419;BME280;11882;42.522;27.458;2022-08-19T00:01:57;100641.31;;;25.95;88.20
23419;BME280;11882;42.522;27.458;2022-08-19T00:04:26;100660.69;;;25.93;88.18
23419;BME280;11882;42.522;27.458;2022-08-19T00:06:54;100656.88;;;25.89;88.01
23419;BME280;11882;42.522;27.458;2022-08-19T00:09:22;100655.53;;;25.87;88.13
23419;BME280;11882;42.522;27.458;2022-08-19T00:11:50;100664.81;;;25.86;87.87
23419;BME280;11882;42.522;27.458;2022-08-19T00:14:19;100670.00;;;25.82;87.93
23419;BME280;11882;42.522;27.458;2022-08-19T00:16:47;100666.22;;;25.78;87.45
23419;BME280;11882;42.522;27.458;2022-08-19T00:19:17;100663.78;;;25.77;87.60
23419;BME280;11882;42.522;27.458;2022-08-19T00:21:44;100661.59;;;25.74;87.32
23419;BME280;11882;42.522;27.458;2022-08-19T00:24:13;100659.16;;;25.72;87.28
23419;BME280;11882;42.522;27.458;2022-08-19T00:26:41;100661.63;;;25.68;87.08
23419;BME280;11882;42.522;27.458;2022-08-19T00:29:10;100650.19;;;25.61;86.14
23419;BME280;11882;42.522;27.458;2022-08-19T00:31:39;100655.91;;;25.60;85.75
23419;BME280;11882;42.522;27.458;2022-08-19T00:34:06;100649.91;;;25.63;85.89
23419;BME280;11882;42.522;27.458;2022-08-19T00:36:33;100660.81;;;25.68;85.63
23419;BME280;11882;42.522;27.458;2022-08-19T00:39:00;100660.25;;;25.71;85.09
23419;BME280;11882;42.522;27.458;2022-08-19T00:41:28;100655.06;;;25.75;85.49
23419;BME280;11882;42.522;27.458;2022-08-19T00:44:04;100662.13;;;25.76;84.18
23419;BME280;11882;42.522;27.458;2022-08-19T00:46:33;100659.94;;;25.78;84.28
23419;BME280;11882;42.522;27.458;2022-08-19T00:49:08;100661.28;;;25.80;84.38
23419;BME280;11882;42.522;27.458;2022-08-19T00:51:36;100665.09;;;25.84;83.63
23419;BME280;11882;42.522;27.458;2022-08-19T00:54:03;100658.00;;;25.83;83.21
23419;BME280;11882;42.522;27.458;2022-08-19T00:56:31;100655.81;;;25.85;83.31
23419;BME280;11882;42.522;27.458;2022-08-19T00:58:58;100672.75;;;25.82;82.92
23419;BME280;11882;42.522;27.458;2022-08-19T01:01:27;100655.84;;;25.80;82.27
23419;BME280;11882;42.522;27.458;2022-08-19T01:03:54;100665.13;;;25.79;81.29
23419;BME280;11882;42.522;27.458;2022-08-19T01:06:22;100663.78;;;25.77;81.26
23419;BME280;11882;42.522;27.458;2022-08-19T01:08:49;100658.59;;;25.75;81.01
23419;BME280;11882;42.522;27.458;2022-08-19T01:11:17;100658.06;;;25.73;81.35
23419;BME280;11882;42.522;27.458;2022-08-19T01:13:45;100660.25;;;25.71;81.46
23419;BME280;11882;42.522;27.458;2022-08-19T01:16:13;100665.16;;;25.74;81.22
23419;BME280;11882;42.522;27.458;2022-08-19T01:18:42;100661.88;;;25.72;80.98
23419;BME280;11882;42.522;27.458;2022-08-19T01:21:18;100671.44;;;25.69;80.49
23419;BME280;11882;42.522;27.458;2022-08-19T01:23:50;100665.69;;;25.71;80.93
23419;BME280;11882;42.522;27.458;2022-08-19T01:26:21;100665.97;;;25.69;80.84
23419;BME280;11882;42.522;27.458;2022-08-19T01:28:51;100673.34;;;25.69;80.40
23419;BME280;11882;42.522;27.458;2022-08-19T01:31:22;100671.44;;;25.69;80.21
23419;BME280;11882;42.522;27.458;2022-08-19T01:33:52;100678.50;;;25.70;80.30
23419;BME280;11882;42.522;27.458;2022-08-19T01:36:27;100679.06;;;25.67;80.06
23419;BME280;11882;42.522;27.458;2022-08-19T01:38:57;100683.16;;;25.65;79.35
23419;BME280;11882;42.522;27.458;2022-08-19T01:41:25;100677.97;;;25.63;79.34
23419;BME280;11882;42.522;27.458;2022-08-19T01:43:52;100679.63;;;25.59;79.50
23419;BME280;11882;42.522;27.458;2022-08-19T01:46:19;100677.44;;;25.56;79.69
23419;BME280;11882;42.522;27.458;2022-08-19T01:48:47;100673.09;;;25.55;79.46
23419;BME280;11882;42.522;27.458;2022-08-19T01:51:14;100675.81;;;25.55;79.43
23419;BME280;11882;42.522;27.458;2022-08-19T01:53:41;100669.56;;;25.55;79.46
23419;BME280;11882;42.522;27.458;2022-08-19T01:56:10;100673.09;;;25.55;79.45
23419;BME280;11882;42.522;27.458;2022-08-19T01:58:41;100672.81;;;25.57;79.96
23419;BME280;11882;42.522;27.458;2022-08-19T02:01:13;100673.09;;;25.55;79.81
23419;BME280;11882;42.522;27.458;2022-08-19T02:03:40;100669.00;;;25.53;79.57
23419;BME280;11882;42.522;27.458;2022-08-19T02:06:07;100668.19;;;25.52;79.68
23419;BME280;11882;42.522;27.458;2022-08-19T02:08:36;100663.03;;;25.51;79.26
23419;BME280;11882;42.522;27.458;2022-08-19T02:11:04;100668.75;;;25.49;79.51
23419;BME280;11882;42.522;27.458;2022-08-19T02:13:34;100667.38;;;25.52;80.17
23419;BME280;11882;42.522;27.458;2022-08-19T02:16:01;100663.03;;;25.51;79.54
23419;BME280;11882;42.522;27.458;2022-08-19T02:18:28;100667.94;;;25.49;79.44
23419;BME280;11882;42.522;27.458;2022-08-19T02:20:55;100666.84;;;25.50;79.78
23419;BME280;11882;42.522;27.458;2022-08-19T02:23:22;100663.31;;;25.49;79.66
23419;BME280;11882;42.522;27.458;2022-08-19T02:25:51;100667.13;;;25.48;79.30
23419;BME280;11882;42.522;27.458;2022-08-19T02:28:18;100659.22;;;25.47;79.88
23419;BME280;11882;42.522;27.458;2022-08-19T02:30:47;100663.03;;;25.46;79.74
23419;BME280;11882;42.522;27.458;2022-08-19T02:33:15;100660.03;;;25.47;80.18
23419;BME280;11882;42.522;27.458;2022-08-19T02:35:42;100668.22;;;25.47;80.54
23419;BME280;11882;42.522;27.458;2022-08-19T02:38:10;100665.78;;;25.46;80.84
23419;BME280;11882;42.522;27.458;2022-08-19T02:40:53;100663.59;;;25.43;81.24
23419;BME280;11882;42.522;27.458;2022-08-19T02:43:21;100666.59;;;25.41;81.96
23419;BME280;11882;42.522;27.458;2022-08-19T02:45:50;100667.41;;;25.42;82.26
23419;BME280;11882;42.522;27.458;2022-08-19T02:48:18;100661.69;;;25.38;82.25
23419;BME280;11882;42.522;27.458;2022-08-19T02:50:47;100665.53;;;25.37;82.70
23419;BME280;11882;42.522;27.458;2022-08-19T02:53:16;100661.69;;;25.38;83.38
23419;BME280;11882;42.522;27.458;2022-08-19T02:55:44;100657.09;;;25.33;83.57
23419;BME280;11882;42.522;27.458;2022-08-19T02:58:11;100658.19;;;25.32;84.22
23419;BME280;11882;42.522;27.458;2022-08-19T03:00:42;100663.34;;;25.34;84.55
23419;BME280;11882;42.522;27.458;2022-08-19T03:03:11;100668.53;;;25.35;84.61
23419;BME280;11882;42.522;27.458;2022-08-19T03:05:39;100675.06;;;25.34;84.68
23419;BME280;11882;42.522;27.458;2022-08-19T03:08:07;100674.25;;;25.34;85.32
23419;BME280;11882;42.522;27.458;2022-08-19T03:10:40;100672.88;;;25.31;85.36
23419;BME280;11882;42.522;27.458;2022-08-19T03:13:10;100674.81;;;25.31;85.72
23419;BME280;11882;42.522;27.458;2022-08-19T03:15:40;100677.81;;;25.29;86.15
23419;BME280;11882;42.522;27.458;2022-08-19T03:18:07;100682.16;;;25.30;85.73
23419;BME280;11882;42.522;27.458;2022-08-19T03:20:41;100676.72;;;25.30;86.25
23419;BME280;11882;42.522;27.458;2022-08-19T03:23:08;100682.16;;;25.30;86.17
23419;BME280;11882;42.522;27.458;2022-08-19T03:25:39;100684.59;;;25.32;85.94
23419;BME280;11882;42.522;27.458;2022-08-19T03:28:09;100684.06;;;25.30;85.79
23419;BME280;11882;42.522;27.458;2022-08-19T03:30:37;100685.97;;;25.29;85.90
23419;BME280;11882;42.522;27.458;2022-08-19T03:33:05;100688.69;;;25.29;86.00
23419;BME280;11882;42.522;27.458;2022-08-19T03:35:32;100691.16;;;25.31;86.19
23419;BME280;11882;42.522;27.458;2022-08-19T03:38:03;100694.16;;;25.29;85.78
23419;BME280;11882;42.522;27.458;2022-08-19T03:40:31;100696.31;;;25.32;85.80
23419;BME280;11882;42.522;27.458;2022-08-19T03:42:58;100691.69;;;25.33;85.77
23419;BME280;11882;42.522;27.458;2022-08-19T03:45:25;100697.94;;;25.33;85.94
23419;BME280;11882;42.522;27.458;2022-08-19T03:47:52;100697.41;;;25.36;85.34
23419;BME280;11882;42.522;27.458;2022-08-19T03:50:19;100701.47;;;25.39;85.27
23419;BME280;11882;42.522;27.458;2022-08-19T03:52:48;100702.56;;;25.38;85.19
23419;BME280;11882;42.522;27.458;2022-08-19T03:55:18;100704.47;;;25.37;85.16
23419;BME280;11882;42.522;27.458;2022-08-19T03:57:45;100705.84;;;25.40;84.43
23419;BME280;11882;42.522;27.458;2022-08-19T04:00:14;100708.00;;;25.43;84.56
23419;BME280;11882;42.522;27.458;2022-08-19T04:02:41;100705.81;;;25.45;84.29
23419;BME280;11882;42.522;27.458;2022-08-19T04:05:09;100702.00;;;25.46;83.88
23419;BME280;11882;42.522;27.458;2022-08-19T04:07:36;100710.72;;;25.48;84.29
23419;BME280;11882;42.522;27.458;2022-08-19T04:10:04;100705.53;;;25.52;84.16
23419;BME280;11882;42.522;27.458;2022-08-19T04:12:32;100714.81;;;25.51;83.87
23419;BME280;11882;42.522;27.458;2022-08-19T04:14:59;100724.34;;;25.53;83.77
23419;BME280;11882;42.522;27.458;2022-08-19T04:17:26;100727.88;;;25.54;83.53
23419;BME280;11882;42.522;27.458;2022-08-19T04:19:53;100724.59;;;25.57;83.41
23419;BME280;11882;42.522;27.458;2022-08-19T04:22:20;100723.22;;;25.59;83.10
23419;BME280;11882;42.522;27.458;2022-08-19T04:24:47;100723.50;;;25.63;82.73
23419;BME280;11882;42.522;27.458;2022-08-19T04:27:14;100731.38;;;25.64;82.72
23419;BME280;11882;42.522;27.458;2022-08-19T04:29:43;100722.97;;;25.66;82.51
23419;BME280;11882;42.522;27.458;2022-08-19T04:32:10;100730.59;;;25.69;82.85
23419;BME280;11882;42.522;27.458;2022-08-19T04:34:41;100734.38;;;25.73;82.48
23419;BME280;11882;42.522;27.458;2022-08-19T04:37:08;100735.75;;;25.76;82.15
23419;BME280;11882;42.522;27.458;2022-08-19T04:39:38;100736.53;;;25.81;82.29
23419;BME280;11882;42.522;27.458;2022-08-19T04:42:22;100738.97;;;25.88;81.56
23419;BME280;11882;42.522;27.458;2022-08-19T04:45:11;100736.75;;;26.00;81.08
23419;BME280;11882;42.522;27.458;2022-08-19T04:47:41;100729.88;;;26.13;79.54
23419;BME280;11882;42.522;27.458;2022-08-19T04:50:10;100727.09;;;26.33;78.67
23419;BME280;11882;42.522;27.458;2022-08-19T04:52:37;100729.13;;;26.56;79.07
23419;BME280;11882;42.522;27.458;2022-08-19T04:55:08;100728.41;;;26.80;75.75
23419;BME280;11882;42.522;27.458;2022-08-19T04:57:35;100725.47;;;27.05;74.21
23419;BME280;11882;42.522;27.458;2022-08-19T05:00:09;100726.00;;;27.36;73.66
23419;BME280;11882;42.522;27.458;2022-08-19T05:02:37;100729.81;;;27.64;72.19
23419;BME280;11882;42.522;27.458;2022-08-19T05:05:04;100734.41;;;27.92;69.39
23419;BME280;11882;42.522;27.458;2022-08-19T05:07:32;100740.59;;;28.22;69.74
23419;BME280;11882;42.522;27.458;2022-08-19T05:09:59;100730.50;;;28.41;69.13
23419;BME280;11882;42.522;27.458;2022-08-19T05:12:26;100731.22;;;28.66;68.37
23419;BME280;11882;42.522;27.458;2022-08-19T05:14:53;100734.25;;;28.83;66.61
23419;BME280;11882;42.522;27.458;2022-08-19T05:17:23;100732.91;;;28.99;65.73
23419;BME280;11882;42.522;27.458;2022-08-19T05:19:50;100738.41;;;29.13;65.71
23419;BME280;11882;42.522;27.458;2022-08-19T05:22:35;100739.75;;;29.29;65.85
23419;BME280;11882;42.522;27.458;2022-08-19T05:25:05;100737.13;;;29.38;65.68
23419;BME280;11882;42.522;27.458;2022-08-19T05:27:32;100737.28;;;29.46;64.94
23419;BME280;11882;42.522;27.458;2022-08-19T05:30:00;100739.22;;;29.60;65.38
23419;BME280;11882;42.522;27.458;2022-08-19T05:32:28;100744.72;;;29.73;64.19
23419;BME280;11882;42.522;27.458;2022-08-19T05:34:55;100746.63;;;29.87;64.55
23419;BME280;11882;42.522;27.458;2022-08-19T05:37:22;100750.91;;;30.06;63.93
23419;BME280;11882;42.522;27.458;2022-08-19T05:39:52;100752.41;;;30.26;63.49
23419;BME280;11882;42.522;27.458;2022-08-19T05:42:20;100746.38;;;30.38;63.21
23419;BME280;11882;42.522;27.458;2022-08-19T05:44:49;100760.38;;;30.50;63.65
23419;BME280;11882;42.522;27.458;2022-08-19T05:47:16;100756.63;;;30.60;63.56
23419;BME280;11882;42.522;27.458;2022-08-19T05:49:46;100762.38;;;30.72;62.96
23419;BME280;11882;42.522;27.458;2022-08-19T05:52:15;100748.19;;;30.78;61.88
23419;BME280;11882;42.522;27.458;2022-08-19T05:54:42;100747.94;;;30.89;61.62
23419;BME280;11882;42.522;27.458;2022-08-19T05:57:10;100741.25;;;31.03;61.79
23419;BME280;11882;42.522;27.458;2022-08-19T05:59:37;100747.34;;;31.14;60.95
23419;BME280;11882;42.522;27.458;2022-08-19T06:02:05;100741.78;;;31.28;60.68
23419;BME280;11882;42.522;27.458;2022-08-19T06:04:33;100743.63;;;31.41;60.04
23419;BME280;11882;42.522;27.458;2022-08-19T06:07:01;100739.13;;;31.45;60.70
23419;BME280;11882;42.522;27.458;2022-08-19T06:09:29;100734.47;;;31.54;59.48
23419;BME280;11882;42.522;27.458;2022-08-19T06:11:57;100736.59;;;31.66;59.91
23419;BME280;11882;42.522;27.458;2022-08-19T06:14:27;100724.38;;;31.81;59.97
23419;BME280;11882;42.522;27.458;2022-08-19T06:16:54;100719.72;;;31.90;58.39
23419;BME280;11882;42.522;27.458;2022-08-19T06:19:22;100720.72;;;32.02;56.88
23419;BME280;11882;42.522;27.458;2022-08-19T06:21:51;100724.66;;;32.27;56.49
23419;BME280;11882;42.522;27.458;2022-08-19T06:24:22;100721.91;;;32.45;55.18
23419;BME280;11882;42.522;27.458;2022-08-19T06:26:50;100721.56;;;32.63;54.31
23419;BME280;11882;42.522;27.458;2022-08-19T06:29:19;100719.63;;;32.81;53.81
23419;BME280;11882;42.522;27.458;2022-08-19T06:31:50;100718.50;;;32.91;53.28
23419;BME280;11882;42.522;27.458;2022-08-19T06:34:18;100723.31;;;33.03;53.39
23419;BME280;11882;42.522;27.458;2022-08-19T06:36:48;100719.59;;;33.07;52.87
23419;BME280;11882;42.522;27.458;2022-08-19T06:39:20;100729.94;;;33.19;52.13
23419;BME280;11882;42.522;27.458;2022-08-19T06:41:49;100726.66;;;33.34;51.76
23419;BME280;11882;42.522;27.458;2022-08-19T06:44:18;100721.78;;;33.40;50.97
23419;BME280;11882;42.522;27.458;2022-08-19T06:46:45;100725.31;;;33.49;50.82
23419;BME280;11882;42.522;27.458;2022-08-19T06:49:14;100717.81;;;33.58;50.43
23419;BME280;11882;42.522;27.458;2022-08-19T06:51:41;100722.28;;;33.33;50.85
23419;BME280;11882;42.522;27.458;2022-08-19T06:54:09;100726.50;;;33.39;50.19
23419;BME280;11882;42.522;27.458;2022-08-19T06:56:38;100725.94;;;33.54;50.03
23419;BME280;11882;42.522;27.458;2022-08-19T06:59:07;100712.19;;;33.75;49.67
23419;BME280;11882;42.522;27.458;2022-08-19T07:01:35;100719.44;;;33.88;49.34
23419;BME280;11882;42.522;27.458;2022-08-19T07:04:04;100723.59;;;34.03;48.67
23419;BME280;11882;42.522;27.458;2022-08-19T07:06:31;100719.47;;;34.09;48.82
23419;BME280;11882;42.522;27.458;2022-08-19T07:08:59;100723.19;;;34.13;48.63
23419;BME280;11882;42.522;27.458;2022-08-19T07:11:26;100723.94;;;34.22;48.56
23419;BME280;11882;42.522;27.458;2022-08-19T07:13:54;100718.34;;;34.31;48.97
23419;BME280;11882;42.522;27.458;2022-08-19T07:16:21;100724.50;;;34.37;48.83
23419;BME280;11882;42.522;27.458;2022-08-19T07:18:49;100719.84;;;34.49;48.50
23419;BME280;11882;42.522;27.458;2022-08-19T07:21:18;100714.91;;;34.55;47.14
23419;BME280;11882;42.522;27.458;2022-08-19T07:23:45;100717.59;;;34.64;47.14
23419;BME280;11882;42.522;27.458;2022-08-19T07:26:14;100710.72;;;34.70;47.40
23419;BME280;11882;42.522;27.458;2022-08-19T07:28:42;100710.50;;;34.75;47.07
23419;BME280;11882;42.522;27.458;2022-08-19T07:31:12;100708.88;;;34.74;47.21
23419;BME280;11882;42.522;27.458;2022-08-19T07:33:40;100700.72;;;34.77;47.35
23419;BME280;11882;42.522;27.458;2022-08-19T07:36:09;100702.53;;;34.94;46.29
23419;BME280;11882;42.522;27.458;2022-08-19T07:38:39;100698.28;;;35.09;46.33
23419;BME280;11882;42.522;27.458;2022-08-19T07:41:08;100702.56;;;35.18;45.98
23419;BME280;11882;42.522;27.458;2022-08-19T07:43:36;100697.28;;;35.26;45.73
23419;BME280;11882;42.522;27.458;2022-08-19T07:46:03;100702.81;;;35.26;45.15
23419;BME280;11882;42.522;27.458;2022-08-19T07:48:32;100699.50;;;35.32;45.43
23419;BME280;11882;42.522;27.458;2022-08-19T07:51:01;100702.16;;;35.41;45.38
23419;BME280;11882;42.522;27.458;2022-08-19T07:53:31;100686.13;;;35.59;45.17
23419;BME280;11882;42.522;27.458;2022-08-19T07:55:59;100688.31;;;35.65;43.81
23419;BME280;11882;42.522;27.458;2022-08-19T07:58:30;100685.78;;;35.72;43.94
23419;BME280;11882;42.522;27.458;2022-08-19T08:00:58;100688.66;;;35.76;44.00
23419;BME280;11882;42.522;27.458;2022-08-19T08:03:25;100693.97;;;35.81;43.68
23419;BME280;11882;42.522;27.458;2022-08-19T08:06:08;100686.59;;;35.85;42.55
23419;BME280;11882;42.522;27.458;2022-08-19T08:08:53;100683.78;;;35.97;43.29
23419;BME280;11882;42.522;27.458;2022-08-19T08:11:43;100686.56;;;35.97;43.47
23419;BME280;11882;42.522;27.458;2022-08-19T08:14:18;100682.22;;;35.84;43.33
23419;BME280;11882;42.522;27.458;2022-08-19T08:16:45;100681.41;;;35.83;42.63
23419;BME280;11882;42.522;27.458;2022-08-19T08:19:13;100678.03;;;35.90;42.51
23419;BME280;11882;42.522;27.458;2022-08-19T08:21:42;100682.44;;;35.91;42.58
23419;BME280;11882;42.522;27.458;2022-08-19T08:24:10;100683.34;;;35.95;43.58
23419;BME280;11882;42.522;27.458;2022-08-19T08:26:38;100682.19;;;35.96;42.56
23419;BME280;11882;42.522;27.458;2022-08-19T08:29:06;100685.53;;;36.02;42.47
23419;BME280;11882;42.522;27.458;2022-08-19T08:31:37;100677.78;;;36.07;42.55
23419;BME280;11882;42.522;27.458;2022-08-19T08:34:04;100674.94;;;35.55;43.91
23419;BME280;11882;42.522;27.458;2022-08-19T08:36:31;100678.41;;;35.64;43.04
23419;BME280;11882;42.522;27.458;2022-08-19T08:39:00;100673.44;;;35.70;43.33
23419;BME280;11882;42.522;27.458;2022-08-19T08:41:33;100684.38;;;35.78;42.78
23419;BME280;11882;42.522;27.458;2022-08-19T08:44:03;100683.00;;;35.72;43.02
23419;BME280;11882;42.522;27.458;2022-08-19T08:46:35;100678.97;;;35.70;43.15
23419;BME280;11882;42.522;27.458;2022-08-19T08:49:13;100678.16;;;35.69;42.00
23419;BME280;11882;42.522;27.458;2022-08-19T08:51:44;100674.22;;;35.70;42.40
23419;BME280;11882;42.522;27.458;2022-08-19T08:54:18;100678.84;;;35.78;42.39
23419;BME280;11882;42.522;27.458;2022-08-19T08:56:47;100681.41;;;35.83;42.23
23419;BME280;11882;42.522;27.458;2022-08-19T08:59:20;100677.47;;;35.84;42.35
23419;BME280;11882;42.522;27.458;2022-08-19T09:01:48;100682.78;;;35.90;41.65
23419;BME280;11882;42.522;27.458;2022-08-19T09:04:17;100682.84;;;36.05;41.88
23419;BME280;11882;42.522;27.458;2022-08-19T09:06:53;100692.75;;;36.18;41.64
23419;BME280;11882;42.522;27.458;2022-08-19T09:09:26;100688.97;;;36.11;41.39
23419;BME280;11882;42.522;27.458;2022-08-19T09:12:04;100688.84;;;36.07;41.43
23419;BME280;11882;42.522;27.458;2022-08-19T09:14:38;100686.53;;;36.09;41.27
23419;BME280;11882;42.522;27.458;2022-08-19T09:17:07;100681.41;;;36.24;41.25
23419;BME280;11882;42.522;27.458;2022-08-19T09:19:35;100686.84;;;36.20;41.47
23419;BME280;11882;42.522;27.458;2022-08-19T09:22:02;100685.84;;;36.12;41.89
23419;BME280;11882;42.522;27.458;2022-08-19T09:24:32;100688.41;;;36.05;42.02
23419;BME280;11882;42.522;27.458;2022-08-19T09:26:59;100677.31;;;36.05;41.68
23419;BME280;11882;42.522;27.458;2022-08-19T09:29:26;100677.06;;;36.10;41.80
23419;BME280;11882;42.522;27.458;2022-08-19T09:31:53;100684.81;;;36.05;41.71
23419;BME280;11882;42.522;27.458;2022-08-19T09:34:20;100686.28;;;36.14;41.63
23419;BME280;11882;42.522;27.458;2022-08-19T09:36:47;100686.25;;;36.27;41.23
23419;BME280;11882;42.522;27.458;2022-08-19T09:39:18;100684.25;;;35.99;41.16
23419;BME280;11882;42.522;27.458;2022-08-19T09:41:47;100686.69;;;36.01;41.71
23419;BME280;11882;42.522;27.458;2022-08-19T09:44:15;100687.28;;;35.94;41.99
23419;BME280;11882;42.522;27.458;2022-08-19T09:46:42;100681.38;;;35.96;40.41
23419;BME280;11882;42.522;27.458;2022-08-19T09:49:09;100688.78;;;35.92;40.65
23419;BME280;11882;42.522;27.458;2022-08-19T09:51:36;100673.53;;;35.73;41.02
23419;BME280;11882;42.522;27.458;2022-08-19T09:54:03;100680.47;;;35.55;41.36
23419;BME280;11882;42.522;27.458;2022-08-19T09:56:31;100681.97;;;35.40;41.24
23419;BME280;11882;42.522;27.458;2022-08-19T09:59:01;100681.97;;;35.40;41.68
23419;BME280;11882;42.522;27.458;2022-08-19T10:01:30;100675.97;;;35.50;41.31
23419;BME280;11882;42.522;27.458;2022-08-19T10:03:59;100670.66;;;35.58;40.89
23419;BME280;11882;42.522;27.458;2022-08-19T10:06:28;100675.75;;;35.43;44.42
23419;BME280;11882;42.522;27.458;2022-08-19T10:08:58;100674.97;;;34.98;46.04
23419;BME280;11882;42.522;27.458;2022-08-19T10:11:25;100670.84;;;34.71;45.65
23419;BME280;11882;42.522;27.458;2022-08-19T10:13:53;100690.84;;;34.55;45.62
23419;BME280;11882;42.522;27.458;2022-08-19T10:16:23;100698.69;;;34.33;46.88
23419;BME280;11882;42.522;27.458;2022-08-19T10:18:51;100697.97;;;33.94;48.20
23419;BME280;11882;42.522;27.458;2022-08-19T10:21:22;100699.38;;;33.71;48.65
23419;BME280;11882;42.522;27.458;2022-08-19T10:23:51;100688.16;;;33.46;49.01
23419;BME280;11882;42.522;27.458;2022-08-19T10:26:21;100693.56;;;33.25;49.41
23419;BME280;11882;42.522;27.458;2022-08-19T10:28:49;100692.78;;;33.16;49.42
23419;BME280;11882;42.522;27.458;2022-08-19T10:31:19;100690.84;;;33.17;49.52
23419;BME280;11882;42.522;27.458;2022-08-19T10:33:48;100697.00;;;33.14;49.34
23419;BME280;11882;42.522;27.458;2022-08-19T10:36:21;100696.91;;;32.93;49.70
23419;BME280;11882;42.522;27.458;2022-08-19T10:38:51;100688.50;;;32.89;49.88
23419;BME280;11882;42.522;27.458;2022-08-19T10:41:20;100681.66;;;32.95;49.98
23419;BME280;11882;42.522;27.458;2022-08-19T10:43:50;100686.13;;;33.17;50.12
23419;BME280;11882;42.522;27.458;2022-08-19T10:46:18;100676.00;;;33.39;49.19
23419;BME280;11882;42.522;27.458;2022-08-19T10:48:45;100681.44;;;33.56;48.63
23419;BME280;11882;42.522;27.458;2022-08-19T10:51:14;100683.00;;;33.66;48.55
23419;BME280;11882;42.522;27.458;2022-08-19T10:53:59;100696.94;;;33.40;48.22
23419;BME280;11882;42.522;27.458;2022-08-19T10:56:27;100695.06;;;33.14;50.50
23419;BME280;11882;42.522;27.458;2022-08-19T10:59:12;100700.44;;;33.11;53.85
23419;BME280;11882;42.522;27.458;2022-08-19T11:01:40;100692.16;;;33.11;54.67
23419;BME280;11882;42.522;27.458;2022-08-19T11:04:08;100695.13;;;32.88;55.05
23419;BME280;11882;42.522;27.458;2022-08-19T11:06:41;100696.44;;;32.74;55.40
23419;BME280;11882;42.522;27.458;2022-08-19T11:09:09;100697.13;;;32.45;57.14
23419;BME280;11882;42.522;27.458;2022-08-19T11:11:37;100705.53;;;32.40;57.42
23419;BME280;11882;42.522;27.458;2022-08-19T11:14:07;100689.34;;;32.29;60.12
23419;BME280;11882;42.522;27.458;2022-08-19T11:16:35;100706.63;;;32.04;61.32
23419;BME280;11882;42.522;27.458;2022-08-19T11:19:03;100703.84;;;31.95;59.47
23419;BME280;11882;42.522;27.458;2022-08-19T11:21:33;100699.78;;;31.84;58.37
23419;BME280;11882;42.522;27.458;2022-08-19T11:24:03;100699.94;;;31.79;60.15
23419;BME280;11882;42.522;27.458;2022-08-19T11:26:31;100702.22;;;31.86;61.47
23419;BME280;11882;42.522;27.458;2022-08-19T11:28:59;100690.06;;;31.78;62.27
23419;BME280;11882;42.522;27.458;2022-08-19T11:31:29;100690.16;;;31.64;64.04
23419;BME280;11882;42.522;27.458;2022-08-19T11:33:57;100695.00;;;31.67;63.88
23419;BME280;11882;42.522;27.458;2022-08-19T11:36:25;100689.31;;;31.55;61.91
23419;BME280;11882;42.522;27.458;2022-08-19T11:38:53;100689.94;;;31.52;61.81
23419;BME280;11882;42.522;27.458;2022-08-19T11:41:23;100691.41;;;31.50;61.98
23419;BME280;11882;42.522;27.458;2022-08-19T11:43:51;100687.03;;;31.49;62.20
23419;BME280;11882;42.522;27.458;2022-08-19T11:46:22;100683.28;;;31.45;62.86
23419;BME280;11882;42.522;27.458;2022-08-19T11:48:50;100674.84;;;31.41;61.18
23419;BME280;11882;42.522;27.458;2022-08-19T11:51:19;100681.03;;;31.47;60.25
23419;BME280;11882;42.522;27.458;2022-08-19T11:53:47;100662.41;;;31.44;60.51
23419;BME280;11882;42.522;27.458;2022-08-19T11:56:15;100665.94;;;31.35;60.53
23419;BME280;11882;42.522;27.458;2022-08-19T11:58:43;100671.75;;;31.34;60.85
23419;BME280;11882;42.522;27.458;2022-08-19T12:01:11;100670.00;;;31.38;59.40
23419;BME280;11882;42.522;27.458;2022-08-19T12:03:40;100667.88;;;31.35;60.26
23419;BME280;11882;42.522;27.458;2022-08-19T12:06:11;100673.25;;;31.40;60.65
23419;BME280;11882;42.522;27.458;2022-08-19T12:08:39;100671.44;;;31.35;60.83
23419;BME280;11882;42.522;27.458;2022-08-19T12:11:06;100663.69;;;31.37;60.82
23419;BME280;11882;42.522;27.458;2022-08-19T12:13:34;100673.06;;;31.36;60.11
23419;BME280;11882;42.522;27.458;2022-08-19T12:16:07;100664.59;;;31.24;59.88
23419;BME280;11882;42.522;27.458;2022-08-19T12:18:35;100662.59;;;31.16;59.92
23419;BME280;11882;42.522;27.458;2022-08-19T12:21:02;100664.72;;;31.19;60.49
23419;BME280;11882;42.522;27.458;2022-08-19T12:23:29;100661.53;;;31.26;58.90
23419;BME280;11882;42.522;27.458;2022-08-19T12:25:56;100666.53;;;31.24;58.58
23419;BME280;11882;42.522;27.458;2022-08-19T12:28:24;100661.69;;;31.21;58.61
23419;BME280;11882;42.522;27.458;2022-08-19T12:30:51;100663.72;;;31.15;58.46
23419;BME280;11882;42.522;27.458;2022-08-19T12:33:20;100655.25;;;31.11;58.78
23419;BME280;11882;42.522;27.458;2022-08-19T12:35:50;100648.16;;;31.10;58.61
23419;BME280;11882;42.522;27.458;2022-08-19T12:38:18;100656.06;;;31.12;58.13
23419;BME280;11882;42.522;27.458;2022-08-19T12:40:46;100647.81;;;31.12;57.49
23419;BME280;11882;42.522;27.458;2022-08-19T12:43:13;100649.66;;;31.17;57.35
23419;BME280;11882;42.522;27.458;2022-08-19T12:45:41;100647.09;;;31.20;57.09
23419;BME280;11882;42.522;27.458;2022-08-19T12:48:09;100640.66;;;31.25;56.29
23419;BME280;11882;42.522;27.458;2022-08-19T12:50:38;100648.28;;;31.28;56.54